createdAt,value
2017-12-02T00:02:01.464Z,67.85
2017-12-02T00:04:27.708Z,59.00
2017-12-02T00:06:53.966Z,55.40
2017-12-02T00:09:20.209Z,70.78
2017-12-02T00:11:47.356Z,72.07
2017-12-02T00:14:13.628Z,65.70
2017-12-02T00:16:39.873Z,71.35
2017-12-02T00:19:06.298Z,84.00
2017-12-02T00:21:32.847Z,85.38
2017-12-02T00:23:59.138Z,73.97
2017-12-02T00:26:26.180Z,68.78
2017-12-02T00:28:52.441Z,66.80
2017-12-02T00:31:18.880Z,73.65
2017-12-02T00:33:45.953Z,74.18
2017-12-02T00:36:12.205Z,77.40
2017-12-02T00:38:38.444Z,82.28
2017-12-02T00:41:05.841Z,77.25
2017-12-02T00:43:32.150Z,98.57
2017-12-02T00:45:58.387Z,101.03
2017-12-02T00:48:24.618Z,85.72
2017-12-02T00:50:50.914Z,87.72
2017-12-02T00:53:17.399Z,94.85
2017-12-02T00:55:43.682Z,69.55
2017-12-02T00:58:09.914Z,84.85
2017-12-02T01:00:36.177Z,83.80
2017-12-02T01:03:02.439Z,90.68
2017-12-02T01:05:28.689Z,83.30
2017-12-02T01:07:55.749Z,71.35
2017-12-02T01:10:23.293Z,69.55
2017-12-02T01:12:49.677Z,73.35
2017-12-02T01:15:15.922Z,68.53
2017-12-02T01:17:42.177Z,73.30
2017-12-02T01:20:08.530Z,62.08
2017-12-02T01:22:35.769Z,65.35
2017-12-02T01:25:02.054Z,70.07
2017-12-02T01:27:28.322Z,73.57
2017-12-02T01:29:54.565Z,71.50
2017-12-02T01:32:20.810Z,69.30
2017-12-02T01:34:48.470Z,67.93
2017-12-02T01:37:14.691Z,61.53
2017-12-02T01:39:41.015Z,60.22
2017-12-02T01:42:07.242Z,59.00
2017-12-02T01:44:33.574Z,62.30
2017-12-02T01:46:59.815Z,60.80
2017-12-02T01:49:26.034Z,62.03
2017-12-02T01:51:52.263Z,65.90
2017-12-02T01:54:22.332Z,72.57
2017-12-02T01:56:48.614Z,74.55
2017-12-02T01:59:14.837Z,69.90
2017-12-02T02:01:41.274Z,66.32
2017-12-02T02:04:07.526Z,65.87
2017-12-02T02:06:33.770Z,67.47
2017-12-02T02:08:59.992Z,69.43
2017-12-02T02:11:26.947Z,67.80
2017-12-02T02:13:53.906Z,72.32
2017-12-02T02:16:20.194Z,67.97
2017-12-02T02:18:47.150Z,72.97
2017-12-02T02:21:13.526Z,66.47
2017-12-02T02:23:39.837Z,68.35
2017-12-02T02:26:06.068Z,77.60
2017-12-02T02:28:32.345Z,75.62
2017-12-02T02:30:58.521Z,79.35
2017-12-02T02:33:24.888Z,75.82
2017-12-02T02:35:51.159Z,82.18
2017-12-02T02:38:17.449Z,86.05
2017-12-02T02:40:43.675Z,86.60
2017-12-02T02:43:09.924Z,83.82
2017-12-02T02:45:36.177Z,104.25
2017-12-02T02:48:02.516Z,123.40
2017-12-02T02:50:28.734Z,127.60
2017-12-02T02:52:55.849Z,143.90
2017-12-02T02:55:22.047Z,156.90
2017-12-02T02:57:49.861Z,159.90
2017-12-02T03:00:16.106Z,147.73
2017-12-02T03:02:42.480Z,155.40
2017-12-02T03:05:08.786Z,129.38
2017-12-02T03:07:35.098Z,125.70
2017-12-02T03:10:01.346Z,149.93
2017-12-02T03:12:29.502Z,187.82
2017-12-02T03:14:56.154Z,173.65
2017-12-02T03:17:22.408Z,199.85
2017-12-02T03:19:48.647Z,200.18
2017-12-02T03:22:14.913Z,185.98
2017-12-02T03:24:41.154Z,174.30
2017-12-02T03:27:07.419Z,171.05
2017-12-02T03:29:33.657Z,169.80
2017-12-02T03:32:00.506Z,208.70
2017-12-02T03:34:26.750Z,192.75
2017-12-02T03:36:52.991Z,282.77
2017-12-02T03:39:19.340Z,359.90
2017-12-02T03:41:45.572Z,252.68
2017-12-02T03:44:11.814Z,323.20
2017-12-02T03:46:38.077Z,341.23
2017-12-02T03:49:04.296Z,419.95
2017-12-02T03:51:30.574Z,438.55
2017-12-02T03:53:56.818Z,380.05
2017-12-02T03:56:23.330Z,299.60
2017-12-02T03:58:49.589Z,318.52
2017-12-02T04:01:15.817Z,260.90
2017-12-02T04:03:42.086Z,330.75
2017-12-02T04:06:08.350Z,228.30
2017-12-02T04:08:34.622Z,311.90
2017-12-02T04:11:00.833Z,293.30
2017-12-02T04:13:27.817Z,259.20
2017-12-02T04:15:54.849Z,289.70
2017-12-02T04:18:21.821Z,195.70
2017-12-02T04:20:48.075Z,260.85
2017-12-02T04:23:14.323Z,310.70
2017-12-02T04:25:40.724Z,220.50
2017-12-02T04:28:07.731Z,258.10
2017-12-02T04:30:33.975Z,261.48
2017-12-02T04:33:00.222Z,310.02
2017-12-02T04:35:26.509Z,393.00
2017-12-02T04:37:52.765Z,397.20
2017-12-02T04:40:19.021Z,375.60
2017-12-02T04:42:45.261Z,573.30
2017-12-02T04:45:11.564Z,587.97
2017-12-02T04:47:37.831Z,658.10
2017-12-02T04:50:04.064Z,416.15
2017-12-02T04:52:30.915Z,462.83
2017-12-02T04:54:57.874Z,436.50
2017-12-02T04:57:24.118Z,456.77
2017-12-02T04:59:50.430Z,330.10
2017-12-02T05:02:17.422Z,429.92
2017-12-02T05:04:43.681Z,459.80
2017-12-02T05:07:09.910Z,466.85
2017-12-02T05:09:36.272Z,464.55
2017-12-02T05:12:02.590Z,499.10
2017-12-02T05:14:28.838Z,541.00
2017-12-02T05:16:55.098Z,513.85
2017-12-02T05:19:21.342Z,504.55
2017-12-02T05:21:47.533Z,614.05
2017-12-02T05:24:13.862Z,542.42
2017-12-02T05:26:40.166Z,459.27
2017-12-02T05:29:06.453Z,461.77
2017-12-02T05:31:33.453Z,536.20
2017-12-02T05:33:59.726Z,572.33
2017-12-02T05:36:25.973Z,450.90
2017-12-02T05:38:52.189Z,573.28
2017-12-02T05:41:18.474Z,515.35
2017-12-02T05:43:44.760Z,486.12
2017-12-02T05:46:11.019Z,452.48
2017-12-02T05:48:37.304Z,532.38
2017-12-02T05:51:03.557Z,500.30
2017-12-02T05:53:30.554Z,445.08
2017-12-02T05:55:56.786Z,504.02
2017-12-02T05:58:23.103Z,441.50
2017-12-02T06:00:49.368Z,381.42
2017-12-02T06:03:15.681Z,646.30
2017-12-02T06:05:41.901Z,455.20
2017-12-02T06:08:08.960Z,455.00
2017-12-02T06:10:36.901Z,477.02
2017-12-02T06:13:03.238Z,488.42
2017-12-02T06:15:30.229Z,470.42
2017-12-02T06:17:56.454Z,478.77
2017-12-02T06:20:22.657Z,488.75
2017-12-02T06:22:48.905Z,360.58
2017-12-02T06:25:15.188Z,445.20
2017-12-02T06:27:41.525Z,339.48
2017-12-02T06:30:07.785Z,375.10
2017-12-02T06:32:34.108Z,428.20
2017-12-02T06:35:00.333Z,414.73
2017-12-02T06:37:26.586Z,480.80
2017-12-02T06:39:52.807Z,410.77
2017-12-02T06:42:19.014Z,462.12
2017-12-02T06:44:46.043Z,356.70
2017-12-02T06:47:12.290Z,390.42
2017-12-02T06:49:38.575Z,372.80
2017-12-02T06:52:05.517Z,426.80
2017-12-02T06:54:32.562Z,349.42
2017-12-02T06:56:58.814Z,314.80
2017-12-02T06:59:25.006Z,404.73
2017-12-02T07:01:51.746Z,434.77
2017-12-02T07:04:18.002Z,493.10
2017-12-02T07:06:44.233Z,534.42
2017-12-02T07:09:10.820Z,454.58
2017-12-02T07:11:38.261Z,380.98
2017-12-02T07:14:04.533Z,396.35
2017-12-02T07:16:31.538Z,433.98
2017-12-02T07:18:57.837Z,395.67
2017-12-02T07:21:25.121Z,522.15
2017-12-02T07:23:51.389Z,477.15
2017-12-02T07:26:17.708Z,395.00
2017-12-02T07:28:43.997Z,363.37
2017-12-02T07:31:10.294Z,346.10
2017-12-02T07:33:36.571Z,319.83
2017-12-02T07:36:02.845Z,412.58
2017-12-02T07:38:29.137Z,395.10
2017-12-02T07:40:55.450Z,343.85
2017-12-02T07:43:21.706Z,346.52
2017-12-02T07:45:49.055Z,442.77
2017-12-02T07:48:15.294Z,342.00
2017-12-02T07:50:42.350Z,378.77
2017-12-02T07:53:08.600Z,411.25
2017-12-02T07:55:34.819Z,347.83
2017-12-02T07:58:01.833Z,392.13
2017-12-02T08:00:28.103Z,359.12
2017-12-02T08:02:54.617Z,417.50
2017-12-02T08:05:21.558Z,352.08
2017-12-02T08:07:47.765Z,339.58
2017-12-02T08:10:13.990Z,289.25
2017-12-02T08:12:41.031Z,246.05
2017-12-02T08:15:08.645Z,232.55
2017-12-02T08:17:34.941Z,262.23
2017-12-02T08:20:01.195Z,202.32
2017-12-02T08:22:27.421Z,219.57
2017-12-02T08:24:53.666Z,174.62
2017-12-02T08:27:19.918Z,169.35
2017-12-02T08:29:46.281Z,266.63
2017-12-02T08:32:12.540Z,223.48
2017-12-02T08:34:39.618Z,215.50
2017-12-02T08:37:06.553Z,230.50
2017-12-02T08:39:32.723Z,223.15
2017-12-02T08:41:58.961Z,215.12
2017-12-02T08:44:25.240Z,215.37
2017-12-02T08:46:51.477Z,182.00
2017-12-02T08:49:18.565Z,176.30
2017-12-02T08:51:44.802Z,137.75
2017-12-02T08:54:11.045Z,211.73
2017-12-02T08:56:37.295Z,195.57
2017-12-02T08:59:03.589Z,193.07
2017-12-02T09:01:29.827Z,157.20
2017-12-02T09:03:56.084Z,150.15
2017-12-02T09:06:23.440Z,152.73
2017-12-02T09:08:49.664Z,121.68
2017-12-02T09:11:15.999Z,116.32
2017-12-02T09:13:43.290Z,107.07
2017-12-02T09:16:09.540Z,110.53
2017-12-02T09:18:35.812Z,122.32
2017-12-02T09:21:02.050Z,103.45
2017-12-02T09:23:28.900Z,111.85
2017-12-02T09:25:55.130Z,111.43
2017-12-02T09:28:22.142Z,116.12
2017-12-02T09:30:48.422Z,85.07
2017-12-02T09:33:14.641Z,106.45
2017-12-02T09:35:41.326Z,108.72
2017-12-02T09:38:07.578Z,110.95
2017-12-02T09:40:33.797Z,107.22
2017-12-02T09:43:00.525Z,103.15
2017-12-02T09:45:26.768Z,102.18
2017-12-02T09:47:53.141Z,110.10
2017-12-02T09:50:20.300Z,97.53
2017-12-02T09:52:46.571Z,93.53
2017-12-02T09:55:12.789Z,100.57
2017-12-02T09:57:39.016Z,129.80
2017-12-02T10:00:05.301Z,95.95
2017-12-02T10:02:32.449Z,71.45
2017-12-02T10:04:58.703Z,84.68
2017-12-02T10:07:24.941Z,85.30
2017-12-02T10:09:51.173Z,102.70
2017-12-02T10:12:18.165Z,106.20
2017-12-02T10:14:44.410Z,90.25
2017-12-02T10:17:10.697Z,92.37
2017-12-02T10:19:37.015Z,93.75
2017-12-02T10:22:03.269Z,77.12
2017-12-02T10:24:29.530Z,80.47
2017-12-02T10:26:55.874Z,87.75
2017-12-02T10:29:22.093Z,86.32
2017-12-02T10:31:48.370Z,87.90
2017-12-02T10:34:18.222Z,87.47
2017-12-02T10:36:44.462Z,73.07
2017-12-02T10:39:10.821Z,97.35
2017-12-02T10:41:37.420Z,94.65
2017-12-02T10:44:03.753Z,94.80
2017-12-02T10:46:30.745Z,101.35
2017-12-02T10:48:57.118Z,113.07
2017-12-02T10:51:25.586Z,100.45
2017-12-02T10:53:51.838Z,86.87
2017-12-02T10:56:18.098Z,97.80
2017-12-02T10:58:44.321Z,84.30
2017-12-02T11:01:10.570Z,105.18
2017-12-02T11:03:37.601Z,81.78
2017-12-02T11:06:04.594Z,72.32
2017-12-02T11:08:30.882Z,74.20
2017-12-02T11:10:57.183Z,66.80
2017-12-02T11:13:23.466Z,55.97
2017-12-02T11:15:49.701Z,58.42
2017-12-02T11:18:16.081Z,59.13
2017-12-02T11:20:44.353Z,48.20
2017-12-02T11:23:11.370Z,64.45
2017-12-02T11:25:37.677Z,53.95
2017-12-02T11:28:03.935Z,61.03
2017-12-02T11:30:30.309Z,72.03
2017-12-02T11:32:56.572Z,76.90
2017-12-02T11:35:26.053Z,60.88
2017-12-02T11:37:52.353Z,52.78
2017-12-02T11:40:18.664Z,53.75
2017-12-02T11:42:44.948Z,57.25
2017-12-02T11:45:11.192Z,69.37
2017-12-02T11:47:37.554Z,73.35
2017-12-02T11:50:03.793Z,61.42
2017-12-02T11:52:30.784Z,64.90
2017-12-02T11:54:57.747Z,77.15
2017-12-02T11:57:24.878Z,71.57
2017-12-02T11:59:51.217Z,64.40
2017-12-02T12:02:17.474Z,63.13
2017-12-02T12:04:43.690Z,56.10
2017-12-02T12:07:09.943Z,60.90
2017-12-02T12:09:36.069Z,58.05
2017-12-02T12:12:02.149Z,54.30
2017-12-02T12:14:32.044Z,56.50
2017-12-02T12:16:58.279Z,49.92
2017-12-02T12:19:25.611Z,54.17
2017-12-02T12:21:53.878Z,55.75
2017-12-02T12:24:20.070Z,55.30
2017-12-02T12:26:46.297Z,45.63
2017-12-02T12:29:12.548Z,46.05
2017-12-02T12:31:39.497Z,53.60
2017-12-02T12:34:06.462Z,53.28
2017-12-02T12:36:32.528Z,57.55
2017-12-02T12:39:01.819Z,59.10
2017-12-02T12:41:28.353Z,54.03
2017-12-02T12:43:54.752Z,53.90
2017-12-02T12:46:22.906Z,63.58
2017-12-02T12:48:49.202Z,54.88
2017-12-02T12:51:15.433Z,56.60
2017-12-02T12:53:41.758Z,61.75
2017-12-02T12:56:07.813Z,65.90
2017-12-02T12:58:33.855Z,55.72
2017-12-02T13:01:00.669Z,55.42
2017-12-02T13:03:27.435Z,52.33
2017-12-02T13:05:53.576Z,48.00
2017-12-02T13:08:19.669Z,44.53
2017-12-02T13:10:45.718Z,42.33
2017-12-02T13:13:11.741Z,52.28
2017-12-02T13:15:38.515Z,50.50
2017-12-02T13:18:04.778Z,58.00
2017-12-02T13:20:30.972Z,45.38
2017-12-02T13:22:57.085Z,45.83
2017-12-02T13:25:23.332Z,46.70
2017-12-02T13:27:49.576Z,47.20
2017-12-02T13:30:16.495Z,52.95
2017-12-02T13:32:42.641Z,43.17
2017-12-02T13:35:08.892Z,49.20
2017-12-02T13:37:35.626Z,41.03
2017-12-02T13:40:02.555Z,39.63
2017-12-02T13:42:28.647Z,46.55
2017-12-02T13:44:54.705Z,48.65
2017-12-02T13:47:21.852Z,39.25
2017-12-02T13:49:48.692Z,46.75
2017-12-02T13:52:14.722Z,49.00
2017-12-02T13:54:40.784Z,36.88
2017-12-02T13:57:07.219Z,41.10
2017-12-02T13:59:34.078Z,49.60
2017-12-02T14:02:00.089Z,45.70
2017-12-02T14:04:26.125Z,45.47
2017-12-02T14:06:52.232Z,43.00
2017-12-02T14:09:18.315Z,44.13
2017-12-02T14:11:44.345Z,42.65
2017-12-02T14:14:10.418Z,47.60
2017-12-02T14:16:37.358Z,43.80
2017-12-02T14:19:03.586Z,46.65
2017-12-02T14:21:29.734Z,46.75
2017-12-02T14:23:55.893Z,48.90
2017-12-02T14:26:22.748Z,45.92
2017-12-02T14:28:49.601Z,45.78
2017-12-02T14:31:16.406Z,42.58
2017-12-02T14:33:43.852Z,47.35
2017-12-02T14:36:10.403Z,49.30
2017-12-02T14:38:36.467Z,46.88
2017-12-02T14:41:02.515Z,43.15
2017-12-02T14:43:28.534Z,48.28
2017-12-02T14:45:55.070Z,45.30
2017-12-02T14:48:21.266Z,48.97
2017-12-02T14:50:48.118Z,43.08
2017-12-02T14:53:14.237Z,45.75
2017-12-02T14:55:42.200Z,58.03
2017-12-02T14:58:08.244Z,47.22
2017-12-02T15:00:36.061Z,43.53
2017-12-02T15:03:02.949Z,50.33
2017-12-02T15:05:29.909Z,56.88
2017-12-02T15:07:56.046Z,53.92
2017-12-02T15:10:22.101Z,50.63
2017-12-02T15:12:48.145Z,51.75
2017-12-02T15:15:14.222Z,55.42
2017-12-02T15:17:40.311Z,52.80
2017-12-02T15:20:06.520Z,54.20
2017-12-02T15:22:32.570Z,59.65
2017-12-02T15:24:58.610Z,60.28
2017-12-02T15:27:25.218Z,65.28
2017-12-02T15:29:51.996Z,52.80
2017-12-02T15:32:20.001Z,49.50
2017-12-02T15:34:46.085Z,66.32
2017-12-02T15:37:12.941Z,61.47
2017-12-02T15:39:39.101Z,51.42
2017-12-02T15:42:05.180Z,59.78
2017-12-02T15:44:31.458Z,59.58
2017-12-02T15:46:57.517Z,56.80
2017-12-02T15:49:24.413Z,69.65
2017-12-02T15:51:50.475Z,64.03
2017-12-02T15:54:16.698Z,62.20
2017-12-02T15:56:42.857Z,64.78
2017-12-02T15:59:08.937Z,55.97
2017-12-02T16:01:35.177Z,50.55
2017-12-02T16:04:01.240Z,48.55
2017-12-02T16:06:27.342Z,54.17
2017-12-02T16:08:53.503Z,46.58
2017-12-02T16:11:19.603Z,51.72
2017-12-02T16:13:45.722Z,49.30
2017-12-02T16:16:11.870Z,51.70
2017-12-02T16:18:42.650Z,56.58
2017-12-02T16:21:08.709Z,50.12
2017-12-02T16:23:34.874Z,48.33
2017-12-02T16:26:00.975Z,48.00
2017-12-02T16:28:27.778Z,51.25
2017-12-02T16:30:53.817Z,50.90
2017-12-02T16:33:19.889Z,51.10
2017-12-02T16:35:49.697Z,44.13
2017-12-02T16:38:15.738Z,56.83
2017-12-02T16:40:41.891Z,54.00
2017-12-02T16:43:07.934Z,51.60
2017-12-02T16:45:34.168Z,50.08
2017-12-02T16:48:00.250Z,60.38
2017-12-02T16:50:27.061Z,57.85
2017-12-02T16:52:53.125Z,52.60
2017-12-02T16:57:50.195Z,46.47
2017-12-02T17:00:16.237Z,50.83
2017-12-02T17:02:42.302Z,51.88
2017-12-02T17:05:08.410Z,49.15
2017-12-02T17:07:34.493Z,58.70
2017-12-02T17:10:01.321Z,52.80
2017-12-02T17:12:31.537Z,47.60
2017-12-02T17:14:58.051Z,42.40
2017-12-02T17:17:24.178Z,45.50
2017-12-02T17:19:50.982Z,42.78
2017-12-02T17:22:17.090Z,40.42
2017-12-02T17:24:43.913Z,38.33
2017-12-02T17:27:09.957Z,35.85
2017-12-02T17:29:38.135Z,36.75
2017-12-02T17:32:04.175Z,41.83
2017-12-02T17:34:30.241Z,35.35
2017-12-02T17:36:56.301Z,41.95
2017-12-02T17:39:23.162Z,48.80
2017-12-02T17:41:49.962Z,40.75
2017-12-02T17:44:16.012Z,49.35
2017-12-02T17:46:42.091Z,38.42
2017-12-02T17:49:08.641Z,49.38
2017-12-02T17:51:34.747Z,35.80
2017-12-02T17:54:00.788Z,50.25
2017-12-02T17:56:26.849Z,45.15
2017-12-02T17:58:53.689Z,46.63
2017-12-02T18:01:20.512Z,48.78
2017-12-02T18:03:46.612Z,45.30
2017-12-02T18:06:14.263Z,36.60
2017-12-02T18:08:40.453Z,45.22
2017-12-02T18:11:06.545Z,51.67
2017-12-02T18:13:32.742Z,40.67
2017-12-02T18:15:58.880Z,45.55
2017-12-02T18:18:25.165Z,41.13
2017-12-02T18:20:51.968Z,34.92
2017-12-02T18:23:18.053Z,49.13
2017-12-02T18:25:44.153Z,51.90
2017-12-02T18:28:10.260Z,50.55
2017-12-02T18:30:36.346Z,49.47
2017-12-02T18:33:02.445Z,49.72
2017-12-02T18:35:29.675Z,50.17
2017-12-02T18:37:55.878Z,52.38
2017-12-02T18:40:21.953Z,47.72
2017-12-02T18:42:48.746Z,53.13
2017-12-02T18:45:14.784Z,46.35
2017-12-02T18:47:40.883Z,50.20
2017-12-02T18:50:07.685Z,45.42
2017-12-02T18:52:33.751Z,57.30
2017-12-02T18:55:00.596Z,47.92
2017-12-02T18:57:26.725Z,54.55
2017-12-02T18:59:52.833Z,57.67
2017-12-02T19:02:18.918Z,49.13
2017-12-02T19:04:44.962Z,48.33
2017-12-02T19:07:11.817Z,46.78
2017-12-02T19:09:37.917Z,45.80
2017-12-02T19:12:04.045Z,47.72
2017-12-02T19:14:30.146Z,49.33
2017-12-02T19:16:57.061Z,51.80
2017-12-02T19:19:23.137Z,58.75
2017-12-02T19:21:49.981Z,48.67
2017-12-02T19:24:16.115Z,47.90
2017-12-02T19:26:42.175Z,57.80
2017-12-02T19:29:09.001Z,47.78
2017-12-02T19:31:35.074Z,56.28
2017-12-02T19:34:01.238Z,45.75
2017-12-02T19:36:27.304Z,48.00
2017-12-02T19:38:53.377Z,49.83
2017-12-02T19:41:20.150Z,50.58
2017-12-02T19:43:46.221Z,49.60
2017-12-02T19:46:12.367Z,43.85
2017-12-02T19:48:38.431Z,47.20
2017-12-02T19:51:05.615Z,46.70
2017-12-02T19:53:31.710Z,43.70
2017-12-02T19:55:57.804Z,51.45
2017-12-02T19:58:23.883Z,49.30
2017-12-02T20:00:49.947Z,44.72
2017-12-02T20:03:16.773Z,46.90
2017-12-02T20:05:42.869Z,45.75
2017-12-02T20:08:08.957Z,46.90
2017-12-02T20:10:35.090Z,49.75
2017-12-02T20:13:01.178Z,48.45
2017-12-02T20:15:27.223Z,52.10
2017-12-02T20:17:53.574Z,52.90
2017-12-02T20:20:19.826Z,51.55
2017-12-02T20:22:46.205Z,49.45
2017-12-02T20:25:13.193Z,47.65
2017-12-02T20:27:39.461Z,50.33
2017-12-02T20:30:05.745Z,45.53
2017-12-02T20:32:32.832Z,44.67
2017-12-02T20:35:00.926Z,47.42
2017-12-02T20:37:26.998Z,45.80
2017-12-02T20:39:53.094Z,44.33
2017-12-02T20:42:19.885Z,47.50
2017-12-02T20:44:45.929Z,45.55
2017-12-02T20:47:13.074Z,51.17
2017-12-02T20:49:39.160Z,49.13
2017-12-02T20:52:05.978Z,47.45
2017-12-02T20:54:32.026Z,49.88
2017-12-02T20:56:58.069Z,50.63
2017-12-02T20:59:24.459Z,54.70
2017-12-02T21:01:50.710Z,45.47
2017-12-02T21:04:17.733Z,54.72
2017-12-02T21:06:43.769Z,54.28
2017-12-02T21:09:09.843Z,49.42
2017-12-02T21:11:36.650Z,56.13
2017-12-02T21:14:02.683Z,48.05
2017-12-02T21:16:29.521Z,49.55
2017-12-02T21:18:55.545Z,51.13
2017-12-02T21:21:21.762Z,55.10
2017-12-02T21:23:47.988Z,55.63
2017-12-02T21:29:13.619Z,55.90
2017-12-02T21:31:40.732Z,53.28
2017-12-02T21:34:06.990Z,54.33
2017-12-02T21:36:34.093Z,56.20
2017-12-02T21:39:00.237Z,59.72
2017-12-02T21:41:27.293Z,53.78
2017-12-02T21:43:54.089Z,57.30
2017-12-02T21:46:21.095Z,56.20
2017-12-02T21:48:47.162Z,46.60
2017-12-02T21:51:14.161Z,49.35
2017-12-02T21:53:40.233Z,51.00
2017-12-02T21:56:06.550Z,49.95
2017-12-02T21:58:32.826Z,49.17
2017-12-02T22:00:59.303Z,58.05
2017-12-02T22:03:25.582Z,55.15
2017-12-02T22:05:51.836Z,51.97
2017-12-02T22:08:18.183Z,50.03
2017-12-02T22:10:44.422Z,43.87
2017-12-02T22:13:10.681Z,48.67
2017-12-02T22:15:37.784Z,53.35
2017-12-02T22:18:04.030Z,56.50
2017-12-02T22:20:30.322Z,47.88
2017-12-02T22:22:58.057Z,53.35
2017-12-02T22:25:24.284Z,43.33
2017-12-02T22:27:51.381Z,59.03
2017-12-02T22:30:17.731Z,57.88
2017-12-02T22:32:44.120Z,54.17
2017-12-02T22:35:10.477Z,55.00
2017-12-02T22:37:36.806Z,49.05
2017-12-02T22:40:03.119Z,48.42
2017-12-02T22:42:30.110Z,53.95
2017-12-02T22:44:56.404Z,52.97
2017-12-02T22:47:22.758Z,51.78
2017-12-02T22:49:49.733Z,55.00
2017-12-02T22:52:16.711Z,55.25
2017-12-02T22:54:42.950Z,50.60
2017-12-02T22:57:09.272Z,50.90
2017-12-02T22:59:36.272Z,56.45
2017-12-02T23:02:02.542Z,53.80
2017-12-02T23:04:28.789Z,48.95
2017-12-02T23:06:55.810Z,50.45
2017-12-02T23:09:22.055Z,57.67
2017-12-02T23:11:48.380Z,53.28
2017-12-02T23:14:14.639Z,55.45
2017-12-02T23:16:40.877Z,57.15
2017-12-02T23:19:07.173Z,51.42
2017-12-02T23:21:33.465Z,56.60
2017-12-02T23:23:59.734Z,47.53
2017-12-02T23:26:26.013Z,50.10
2017-12-02T23:28:52.297Z,54.88
2017-12-02T23:31:18.578Z,47.85
2017-12-02T23:33:45.600Z,43.00
2017-12-02T23:36:11.874Z,50.12
2017-12-02T23:38:38.877Z,52.78
2017-12-02T23:41:05.229Z,48.92
2017-12-02T23:43:31.445Z,41.92
2017-12-02T23:45:57.789Z,46.78
2017-12-02T23:48:24.076Z,47.28
2017-12-02T23:50:50.348Z,48.90
2017-12-02T23:53:17.349Z,47.30
2017-12-02T23:55:43.613Z,47.42
2017-12-02T23:58:09.907Z,44.50
